Time;durP1;ratioP1;P1;durP2;ratioP2;P2;SDS_P1;SDS_P2;PMS_P1;PMS_P2;Temp;Humidity;BMP_temperature;BMP_pressure;BME280_temperature;BME280_humidity;BME280_pressure;Samples;Min_cycle;Max_cycle;Signal;HPM_P1;HPM_P2
2022/07/26 00:00:29;;;;;;;7.63;2.30;;;20.10;71.00;;;;;;5013538;28;20532;-57
2022/07/26 00:02:56;;;;;;;5.80;2.07;;;20.10;70.90;;;;;;5012963;28;21021;-58
2022/07/26 00:05:23;;;;;;;4.73;1.90;;;20.10;70.90;;;;;;5013331;28;20565;-57
2022/07/26 00:08:09;;;;;;;6.63;1.97;;;20.20;70.90;;;;;;5014164;28;20442;-58
2022/07/26 00:10:39;;;;;;;6.17;3.30;;;20.20;70.80;;;;;;5013010;28;20985;-57
2022/07/26 00:13:06;;;;;;;3.53;1.53;;;20.20;70.60;;;;;;5013582;28;20442;-57
2022/07/26 00:15:34;;;;;;;2.70;1.10;;;20.20;70.50;;;;;;5012550;28;20487;-58
2022/07/26 00:18:01;;;;;;;6.10;1.80;;;20.20;70.60;;;;;;5011762;28;20446;-58
2022/07/26 00:20:28;;;;;;;7.13;2.10;;;20.20;70.50;;;;;;5012822;28;20878;-57
2022/07/26 00:22:56;;;;;;;2.37;1.73;;;20.20;70.50;;;;;;5013572;28;20529;-57
2022/07/26 00:25:23;;;;;;;4.73;1.53;;;20.20;70.40;;;;;;5014360;28;20553;-56
2022/07/26 00:27:52;;;;;;;3.57;1.80;;;20.20;70.40;;;;;;5017325;28;20459;-56
2022/07/26 00:30:19;;;;;;;9.57;2.10;;;20.30;70.40;;;;;;5017107;28;20942;-58
2022/07/26 00:32:46;;;;;;;5.83;1.70;;;20.20;70.30;;;;;;5016782;28;20517;-58
2022/07/26 00:35:14;;;;;;;5.63;2.07;;;20.20;70.20;;;;;;5016570;28;20568;-58
2022/07/26 00:37:42;;;;;;;2.07;1.03;;;20.30;70.40;;;;;;5017271;28;20533;-57
2022/07/26 00:40:11;;;;;;;3.67;1.40;;;20.30;70.30;;;;;;5016818;28;20477;-57
2022/07/26 00:42:38;;;;;;;7.03;1.60;;;20.30;70.30;;;;;;5016555;28;20454;-58
2022/07/26 00:45:09;;;;;;;3.30;1.57;;;20.30;70.20;;;;;;5016591;28;21043;-58
2022/07/26 00:47:36;;;;;;;2.57;1.43;;;20.30;70.10;;;;;;5016801;28;20823;-57
2022/07/26 00:50:05;;;;;;;2.80;1.80;;;20.30;70.10;;;;;;5016500;28;20536;-55
2022/07/26 00:52:32;;;;;;;2.80;1.50;;;20.30;70.10;;;;;;5016932;28;20459;-57
2022/07/26 00:55:00;;;;;;;2.00;1.17;;;20.30;70.00;;;;;;5016334;28;20573;-57
2022/07/26 00:57:27;;;;;;;3.30;1.70;;;20.40;70.00;;;;;;5016616;28;20460;-57
2022/07/26 00:59:55;;;;;;;5.13;1.90;;;20.40;70.00;;;;;;5016922;28;20453;-58
2022/07/26 01:02:23;;;;;;;2.47;1.73;;;20.30;70.10;;;;;;5017274;28;20445;-57
2022/07/26 01:04:50;;;;;;;3.23;1.73;;;20.30;70.20;;;;;;5017006;28;20478;-57
2022/07/26 01:07:18;;;;;;;3.30;1.60;;;20.30;70.40;;;;;;5016677;28;20992;-57
2022/07/26 01:09:45;;;;;;;7.73;1.43;;;20.30;70.60;;;;;;5016312;28;20533;-57
2022/07/26 01:12:12;;;;;;;4.03;1.70;;;20.30;70.50;;;;;;5017097;28;20520;-56
2022/07/26 01:14:43;;;;;;;5.37;1.90;;;20.30;70.40;;;;;;5040088;22;20665;-58
2022/07/26 01:17:10;;;;;;;3.90;1.40;;;20.30;70.40;;;;;;4996797;28;20463;-57
2022/07/26 01:19:40;;;;;;;4.87;1.90;;;20.30;70.10;;;;;;4996348;28;20538;-57
2022/07/26 01:22:09;;;;;;;3.93;1.47;;;20.30;69.70;;;;;;4996399;28;20541;-59
2022/07/26 01:24:36;;;;;;;6.30;1.27;;;20.30;69.50;;;;;;4996309;28;20533;-58
2022/07/26 01:27:04;;;;;;;3.20;1.23;;;20.20;69.40;;;;;;4996458;28;20446;-59
2022/07/26 01:29:31;;;;;;;2.43;1.30;;;20.30;69.20;;;;;;4996003;28;20896;-59
2022/07/26 01:31:58;;;;;;;3.13;1.37;;;20.20;69.00;;;;;;4995926;28;20542;-59
2022/07/26 01:34:25;;;;;;;3.47;1.37;;;20.20;68.90;;;;;;4995639;28;21010;-59
2022/07/26 01:36:55;;;;;;;2.53;1.23;;;20.20;69.40;;;;;;4995250;28;20470;-60
2022/07/26 01:39:23;;;;;;;5.00;1.07;;;20.20;68.60;;;;;;4995954;28;20455;-60
2022/07/26 01:41:50;;;;;;;3.27;1.23;;;20.20;68.70;;;;;;4996108;28;20465;-60
2022/07/26 01:44:18;;;;;;;3.30;1.67;;;20.10;68.70;;;;;;4995792;28;20546;-60
2022/07/26 01:46:45;;;;;;;2.63;1.07;;;20.10;68.70;;;;;;4995746;28;20558;-59
2022/07/26 01:49:12;;;;;;;4.30;1.17;;;20.10;68.80;;;;;;4995547;28;20482;-59
2022/07/26 01:51:40;;;;;;;4.77;1.33;;;20.00;68.80;;;;;;4996516;28;20447;-59
2022/07/26 01:54:07;;;;;;;4.80;1.13;;;20.00;69.00;;;;;;4997782;28;20454;-60
2022/07/26 01:56:36;;;;;;;2.40;0.90;;;20.00;69.00;;;;;;5002489;28;20510;-60
2022/07/26 01:59:03;;;;;;;3.30;1.30;;;20.00;69.20;;;;;;5008001;28;20447;-60
2022/07/26 02:01:30;;;;;;;5.73;1.60;;;20.00;69.20;;;;;;5005559;28;20942;-60
2022/07/26 02:03:58;;;;;;;4.33;1.70;;;19.90;69.40;;;;;;5003663;28;20455;-60
2022/07/26 02:06:25;;;;;;;3.40;1.40;;;19.90;69.50;;;;;;4992848;28;20474;-60
2022/07/26 02:08:52;;;;;;;4.87;1.20;;;19.90;69.70;;;;;;4984320;28;20526;-59
2022/07/26 02:11:19;;;;;;;5.40;1.40;;;19.90;69.90;;;;;;4998453;28;20478;-59
2022/07/26 02:13:48;;;;;;;6.10;1.50;;;19.90;70.20;;;;;;4997019;28;20526;-60
2022/07/26 02:16:15;;;;;;;7.07;1.80;;;19.90;70.30;;;;;;4995579;28;20541;-58
2022/07/26 02:18:42;;;;;;;3.37;1.47;;;19.90;70.50;;;;;;4997307;28;20451;-59
2022/07/26 02:21:10;;;;;;;4.77;1.10;;;19.80;70.60;;;;;;4997499;28;20451;-58
2022/07/26 02:23:37;;;;;;;4.63;1.57;;;19.80;70.70;;;;;;4997230;28;20519;-59
2022/07/26 02:26:04;;;;;;;4.73;1.67;;;19.80;70.90;;;;;;4997306;28;20546;-58
2022/07/26 02:28:31;;;;;;;4.33;1.90;;;19.80;71.10;;;;;;4995793;28;20947;-59
2022/07/26 02:31:00;;;;;;;2.73;1.27;;;19.80;71.20;;;;;;4996778;28;20443;-59
2022/07/26 02:33:27;;;;;;;1.93;1.30;;;19.80;71.40;;;;;;4995657;28;20982;-59
2022/07/26 02:35:54;;;;;;;2.80;1.30;;;19.80;71.50;;;;;;4997987;28;20522;-59
2022/07/26 02:38:22;;;;;;;3.83;1.50;;;19.90;71.60;;;;;;4996208;28;20546;-58
2022/07/26 02:40:51;;;;;;;3.87;1.53;;;19.90;71.70;;;;;;4997944;28;20550;-58
2022/07/26 02:43:18;;;;;;;2.83;1.30;;;19.90;71.70;;;;;;4997123;28;20458;-59
2022/07/26 02:45:45;;;;;;;6.07;1.30;;;19.90;71.80;;;;;;4996863;28;20553;-58
2022/07/26 02:48:14;;;;;;;5.07;1.20;;;19.90;72.00;;;;;;4993448;28;21022;-58
2022/07/26 02:50:41;;;;;;;3.37;1.37;;;19.90;72.20;;;;;;4994429;28;20542;-58
2022/07/26 02:53:08;;;;;;;3.97;1.47;;;19.90;72.50;;;;;;4994941;28;20534;-58
2022/07/26 02:55:35;;;;;;;5.23;1.33;;;19.90;72.70;;;;;;4994461;28;20582;-58
2022/07/26 02:58:03;;;;;;;1.87;1.17;;;19.80;73.00;;;;;;4994867;28;20534;-58
2022/07/26 03:00:30;;;;;;;4.10;1.47;;;19.90;73.40;;;;;;4994339;28;20538;-59
2022/07/26 03:02:57;;;;;;;8.50;1.80;;;19.80;73.70;;;;;;4995374;28;21007;-58
2022/07/26 03:05:26;;;;;;;3.70;1.40;;;19.80;73.90;;;;;;5002596;28;20810;-57
2022/07/26 03:07:53;;;;;;;3.03;1.47;;;19.80;74.10;;;;;;4999521;28;20457;-57
2022/07/26 03:10:20;;;;;;;2.93;1.83;;;19.90;74.40;;;;;;4995702;28;20489;-58
2022/07/26 03:12:48;;;;;;;3.03;1.33;;;19.80;74.40;;;;;;4995175;28;20534;-58
2022/07/26 03:15:15;;;;;;;4.50;2.20;;;19.80;74.70;;;;;;4993772;28;20573;-58
2022/07/26 03:17:42;;;;;;;5.93;1.70;;;19.80;75.00;;;;;;4994370;28;20542;-58
2022/07/26 03:20:11;;;;;;;4.17;1.50;;;19.80;75.40;;;;;;4994033;28;20450;-58
2022/07/26 03:22:39;;;;;;;8.57;1.70;;;19.80;75.50;;;;;;4994576;28;20498;-57
2022/07/26 03:25:07;;;;;;;5.33;1.60;;;19.90;75.80;;;;;;4993542;28;20994;-59
2022/07/26 03:27:35;;;;;;;3.90;1.60;;;19.80;75.80;;;;;;4994323;28;20478;-58
2022/07/26 03:30:02;;;;;;;4.37;1.47;;;19.90;76.10;;;;;;4993862;28;20446;-58
2022/07/26 03:32:29;;;;;;;5.93;2.23;;;19.80;76.20;;;;;;4993125;28;20538;-58
2022/07/26 03:34:56;;;;;;;4.43;1.93;;;19.80;76.30;;;;;;4993935;28;20498;-58
2022/07/26 03:37:23;;;;;;;3.43;1.40;;;19.80;76.40;;;;;;4993704;28;20483;-59
2022/07/26 03:39:52;;;;;;;3.57;1.80;;;19.80;76.60;;;;;;4993321;28;20550;-58
2022/07/26 03:42:19;;;;;;;8.87;2.00;;;19.80;76.70;;;;;;4993876;28;20447;-58
2022/07/26 03:44:46;;;;;;;2.27;1.43;;;19.80;76.80;;;;;;4994107;28;20537;-57
2022/07/26 03:47:14;;;;;;;5.60;1.63;;;19.90;77.10;;;;;;4993593;28;20514;-57
2022/07/26 03:49:41;;;;;;;4.33;1.60;;;19.80;77.20;;;;;;4994054;28;20477;-58
2022/07/26 03:52:09;;;;;;;4.10;1.60;;;19.80;77.70;;;;;;4993774;28;20447;-57
2022/07/26 03:54:36;;;;;;;4.30;1.80;;;19.80;78.00;;;;;;4993837;28;20848;-57
2022/07/26 03:57:04;;;;;;;3.40;1.87;;;19.80;78.30;;;;;;4993733;28;20485;-58
2022/07/26 03:59:31;;;;;;;4.47;1.47;;;19.80;78.70;;;;;;4993125;28;20541;-58
2022/07/26 04:01:59;;;;;;;8.63;1.80;;;19.70;79.10;;;;;;4993944;28;20542;-58
2022/07/26 04:04:26;;;;;;;6.03;2.10;;;19.70;79.40;;;;;;4993120;28;20819;-56
2022/07/26 04:10:16;;;;;;;8.50;2.23;;;19.80;80.00;;;;;;5134064;27;20520;-57
2022/07/26 04:12:43;;;;;;;4.80;1.50;;;19.80;80.60;;;;;;5090328;28;20492;-57
2022/07/26 04:15:11;;;;;;;3.40;1.80;;;19.80;81.00;;;;;;5090605;28;20882;-57
2022/07/26 04:17:39;;;;;;;2.70;1.53;;;19.80;81.10;;;;;;5090196;28;20951;-59
2022/07/26 04:20:07;;;;;;;4.33;2.23;;;19.80;81.60;;;;;;5090167;28;20521;-60
2022/07/26 04:22:34;;;;;;;4.23;1.93;;;19.70;81.80;;;;;;5051520;28;20442;-58
2022/07/26 04:25:02;;;;;;;2.00;1.77;;;19.70;82.40;;;;;;5058223;28;20470;-58
2022/07/26 04:27:32;;;;;;;5.27;2.67;;;19.70;82.70;;;;;;5070669;28;20485;-58
2022/07/26 04:29:59;;;;;;;5.57;2.30;;;19.80;83.90;;;;;;5070930;28;20519;-58
2022/07/26 04:32:27;;;;;;;5.77;2.03;;;19.80;83.60;;;;;;5070890;28;20566;-58
2022/07/26 04:34:54;;;;;;;7.50;2.63;;;19.80;83.60;;;;;;5070488;28;20896;-58
2022/07/26 04:37:21;;;;;;;3.17;1.90;;;19.80;83.80;;;;;;5057246;28;20588;-57
2022/07/26 04:39:49;;;;;;;7.80;2.77;;;19.90;84.10;;;;;;5053001;28;20523;-57
2022/07/26 04:42:16;;;;;;;6.73;2.93;;;19.90;84.60;;;;;;5080933;28;20525;-58
2022/07/26 04:44:45;;;;;;;6.57;3.00;;;19.80;84.80;;;;;;5089730;28;21069;-58
2022/07/26 04:47:12;;;;;;;6.30;2.73;;;19.80;85.00;;;;;;5071922;28;20486;-58
2022/07/26 04:49:39;;;;;;;12.67;3.50;;;19.80;85.30;;;;;;5069464;28;20476;-58
2022/07/26 04:52:06;;;;;;;6.07;2.50;;;19.80;85.60;;;;;;5069559;28;20441;-58
2022/07/26 04:54:34;;;;;;;5.63;2.50;;;19.90;85.80;;;;;;5069389;28;20471;-59
2022/07/26 04:57:01;;;;;;;6.37;2.70;;;19.90;85.70;;;;;;5070519;28;20530;-58
2022/07/26 04:59:28;;;;;;;4.77;2.70;;;20.00;85.80;;;;;;5078113;28;20430;-57
2022/07/26 05:01:57;;;;;;;7.40;3.13;;;20.00;85.90;;;;;;5090537;28;20438;-58
2022/07/26 05:04:25;;;;;;;7.30;2.80;;;20.00;86.70;;;;;;5075470;28;20812;-58
2022/07/26 05:06:52;;;;;;;5.63;3.27;;;20.00;86.20;;;;;;5069340;28;20494;-57
2022/07/26 05:09:19;;;;;;;7.50;3.00;;;20.00;86.30;;;;;;5069222;28;20999;-58
2022/07/26 05:11:47;;;;;;;15.87;3.07;;;20.00;86.80;;;;;;5069207;28;20493;-58
2022/07/26 05:14:14;;;;;;;3.73;2.40;;;20.00;87.10;;;;;;5069144;28;20448;-59
2022/07/26 05:16:41;;;;;;;5.90;2.80;;;20.00;87.30;;;;;;5063435;28;20500;-59
2022/07/26 05:19:10;;;;;;;3.60;2.40;;;20.00;87.50;;;;;;5067162;28;20531;-58
2022/07/26 05:21:37;;;;;;;8.90;3.43;;;20.10;87.70;;;;;;5053384;28;20539;-59
2022/07/26 05:24:05;;;;;;;6.70;2.83;;;20.10;87.40;;;;;;5055539;28;20452;-58
2022/07/26 05:26:32;;;;;;;6.87;3.00;;;20.20;87.00;;;;;;5055557;28;20562;-59
2022/07/26 05:28:59;;;;;;;4.53;2.50;;;20.30;86.60;;;;;;5055431;28;20485;-60
2022/07/26 05:31:26;;;;;;;7.73;2.70;;;20.30;86.50;;;;;;5042897;28;20448;-60
2022/07/26 05:33:54;;;;;;;5.50;2.70;;;20.40;86.30;;;;;;5035817;28;20476;-59
2022/07/26 05:36:22;;;;;;;4.10;2.80;;;20.40;86.00;;;;;;5035809;28;20469;-58
2022/07/26 05:38:50;;;;;;;4.67;2.60;;;20.50;85.70;;;;;;5035323;28;21033;-59
2022/07/26 05:41:17;;;;;;;7.93;3.13;;;20.60;85.20;;;;;;5035148;28;20556;-59
2022/07/26 05:43:44;;;;;;;6.33;2.90;;;20.60;84.80;;;;;;5035562;28;20532;-59
2022/07/26 05:46:12;;;;;;;4.70;2.73;;;20.70;84.60;;;;;;5035344;28;20503;-59
2022/07/26 05:48:39;;;;;;;5.53;2.63;;;20.70;84.00;;;;;;5034833;28;20563;-59
2022/07/26 05:51:06;;;;;;;5.97;2.90;;;20.90;83.80;;;;;;5038156;28;20451;-59
2022/07/26 05:53:35;;;;;;;4.90;2.73;;;20.90;83.10;;;;;;5048296;28;20479;-58
2022/07/26 05:56:02;;;;;;;5.90;3.00;;;21.00;82.60;;;;;;5048066;28;20498;-58
2022/07/26 05:58:30;;;;;;;5.37;2.70;;;21.00;82.40;;;;;;5041112;28;20524;-58
2022/07/26 06:00:57;;;;;;;6.43;2.70;;;21.00;82.10;;;;;;5052990;28;20545;-59
2022/07/26 06:03:24;;;;;;;4.63;3.00;;;21.00;81.90;;;;;;5036686;28;20470;-59
2022/07/26 06:05:54;;;;;;;4.83;2.77;;;21.00;82.00;;;;;;5042724;28;20528;-60
2022/07/26 06:08:22;;;;;;;8.93;2.73;;;21.00;82.20;;;;;;5054497;28;20877;-59
2022/07/26 06:10:51;;;;;;;7.90;2.93;;;21.10;82.20;;;;;;5054843;28;20942;-58
2022/07/26 06:13:19;;;;;;;6.50;2.73;;;21.20;82.00;;;;;;5055098;28;20533;-58
2022/07/26 06:15:47;;;;;;;5.77;2.73;;;21.20;81.40;;;;;;5053118;28;20985;-59
2022/07/26 06:18:14;;;;;;;4.40;2.50;;;21.20;81.30;;;;;;5054706;28;20547;-61
2022/07/26 06:20:43;;;;;;;10.03;2.80;;;21.20;81.20;;;;;;5055003;28;20905;-60
2022/07/26 06:23:11;;;;;;;6.10;2.50;;;21.20;81.40;;;;;;5045512;28;21028;-60
2022/07/26 06:25:38;;;;;;;3.50;2.80;;;21.20;81.30;;;;;;5034464;28;20471;-61
2022/07/26 06:28:09;;;;;;;5.70;2.60;;;21.20;81.40;;;;;;5049836;28;20780;-60
2022/07/26 06:30:37;;;;;;;7.20;2.70;;;21.10;81.40;;;;;;5053374;28;20519;-60
2022/07/26 06:33:05;;;;;;;7.17;2.90;;;21.10;81.80;;;;;;5037366;28;20449;-59
2022/07/26 06:35:34;;;;;;;6.73;3.63;;;21.20;82.30;;;;;;5034758;28;20505;-59
2022/07/26 06:38:04;;;;;;;4.90;2.60;;;21.30;80.90;;;;;;5034577;28;20455;-60
2022/07/26 06:40:31;;;;;;;5.60;3.37;;;21.30;80.50;;;;;;5039457;28;20503;-60
2022/07/26 06:42:59;;;;;;;4.83;2.83;;;21.30;80.10;;;;;;5068421;28;20935;-60
2022/07/26 06:45:30;;;;;;;5.43;2.80;;;21.20;80.40;;;;;;5074370;28;20500;-60
2022/07/26 06:47:57;;;;;;;4.80;3.60;;;21.10;80.80;;;;;;5074889;28;20526;-56
2022/07/26 06:50:24;;;;;;;7.20;3.30;;;21.20;80.80;;;;;;5069877;28;20789;-58
2022/07/26 06:52:51;;;;;;;5.77;2.90;;;21.20;80.60;;;;;;5057705;28;20506;-58
2022/07/26 06:55:19;;;;;;;8.27;3.80;;;21.30;80.30;;;;;;5054454;28;20556;-59
2022/07/26 06:57:46;;;;;;;5.63;3.10;;;21.40;80.30;;;;;;5051733;28;20536;-59
2022/07/26 07:00:14;;;;;;;6.30;3.23;;;21.50;79.70;;;;;;5052260;28;20537;-59
2022/07/26 07:02:43;;;;;;;3.80;3.40;;;21.70;78.90;;;;;;5048811;28;20553;-59
2022/07/26 07:05:11;;;;;;;8.10;3.17;;;21.90;77.70;;;;;;5073259;28;20550;-59
2022/07/26 07:07:39;;;;;;;5.60;3.00;;;22.10;76.70;;;;;;5069282;28;20459;-58
2022/07/26 07:10:07;;;;;;;8.50;3.20;;;22.20;75.60;;;;;;5053588;28;20469;-58
2022/07/26 07:12:34;;;;;;;5.83;3.03;;;22.40;74.80;;;;;;5053878;28;20545;-60
2022/07/26 07:15:01;;;;;;;7.73;3.30;;;22.60;74.10;;;;;;5053771;28;20577;-59
2022/07/26 07:17:29;;;;;;;9.33;3.60;;;22.70;73.00;;;;;;5055572;28;20518;-60
2022/07/26 07:19:59;;;;;;;4.57;3.03;;;22.70;72.60;;;;;;5059391;28;20826;-59
2022/07/26 07:22:26;;;;;;;4.30;3.10;;;22.60;72.50;;;;;;5074834;28;20883;-59
2022/07/26 07:24:53;;;;;;;3.37;3.07;;;22.60;72.50;;;;;;5073690;28;20460;-59
2022/07/26 07:27:20;;;;;;;5.90;3.80;;;22.50;72.50;;;;;;5073629;28;20493;-60
2022/07/26 07:29:48;;;;;;;4.60;3.10;;;22.50;72.50;;;;;;5074412;28;20500;-59
2022/07/26 07:32:15;;;;;;;6.07;3.10;;;22.60;71.80;;;;;;5074379;28;20544;-60
2022/07/26 07:34:42;;;;;;;7.43;3.07;;;22.70;70.70;;;;;;5074386;28;20469;-59
2022/07/26 07:37:12;;;;;;;3.73;2.90;;;22.80;70.20;;;;;;5074273;28;20481;-58
2022/07/26 07:39:39;;;;;;;8.10;2.70;;;22.80;69.50;;;;;;5075216;28;20446;-60
2022/07/26 07:42:06;;;;;;;4.20;2.57;;;22.70;69.60;;;;;;5075197;28;20537;-58
2022/07/26 07:44:34;;;;;;;3.90;2.57;;;22.60;69.60;;;;;;5073687;28;20493;-60
2022/07/26 07:47:01;;;;;;;4.20;2.80;;;22.40;69.20;;;;;;5073110;28;20449;-60
2022/07/26 07:49:28;;;;;;;4.70;3.23;;;22.30;69.50;;;;;;5033452;28;20482;-60
2022/07/26 07:51:55;;;;;;;6.47;3.07;;;22.20;69.80;;;;;;5033483;28;20702;-59
2022/07/26 07:54:24;;;;;;;4.03;2.70;;;22.20;69.80;;;;;;5033658;28;20455;-59
2022/07/26 07:56:51;;;;;;;3.67;2.90;;;22.40;69.20;;;;;;5033241;28;20474;-59
2022/07/26 07:59:19;;;;;;;3.53;3.00;;;22.60;68.60;;;;;;5033417;28;20448;-59
2022/07/26 08:01:46;;;;;;;4.70;2.83;;;22.70;67.40;;;;;;5033514;28;20452;-59
2022/07/26 08:04:13;;;;;;;3.13;2.73;;;22.80;66.70;;;;;;5033191;28;20968;-59
2022/07/26 08:06:41;;;;;;;3.20;2.83;;;22.90;65.50;;;;;;5033047;28;20563;-59
2022/07/26 08:09:08;;;;;;;5.33;2.70;;;23.10;64.90;;;;;;5032952;28;21071;-59
2022/07/26 08:11:37;;;;;;;5.03;3.20;;;23.30;63.90;;;;;;5032941;28;20534;-60
2022/07/26 08:14:04;;;;;;;4.47;2.50;;;23.50;63.00;;;;;;5033501;28;20450;-59
2022/07/26 08:16:31;;;;;;;2.70;2.50;;;23.50;62.00;;;;;;5032878;28;20504;-60
2022/07/26 08:18:58;;;;;;;3.50;3.07;;;23.60;61.70;;;;;;5032606;28;21015;-59
2022/07/26 08:21:26;;;;;;;3.97;2.60;;;23.60;61.10;;;;;;5032754;28;20444;-60
2022/07/26 08:23:54;;;;;;;8.13;3.43;;;23.50;61.10;;;;;;5033184;28;20563;-60
2022/07/26 08:26:21;;;;;;;4.17;2.80;;;23.20;61.40;;;;;;5033133;28;20964;-58
2022/07/26 08:28:50;;;;;;;4.20;3.60;;;23.00;62.20;;;;;;5032810;28;20540;-60
2022/07/26 08:31:19;;;;;;;4.80;2.87;;;22.80;63.10;;;;;;5032717;28;20487;-59
2022/07/26 08:33:46;;;;;;;3.43;2.60;;;22.60;63.80;;;;;;5032877;28;20963;-60
2022/07/26 08:36:14;;;;;;;2.77;2.20;;;22.60;64.30;;;;;;5032532;28;20554;-58
2022/07/26 08:38:42;;;;;;;2.23;1.60;;;22.60;64.90;;;;;;5032477;28;20539;-59
2022/07/26 08:41:09;;;;;;;1.70;1.53;;;22.20;68.30;;;;;;5033927;28;21011;-59
2022/07/26 08:43:36;;;;;;;5.70;2.07;;;21.60;71.90;;;;;;5040750;28;20447;-59
2022/07/26 08:46:05;;;;;;;2.57;2.13;;;20.90;76.60;;;;;;5042232;28;20549;-58
2022/07/26 08:48:32;;;;;;;2.73;1.80;;;20.30;83.80;;;;;;5036264;28;20445;-59
2022/07/26 08:51:01;;;;;;;4.10;1.80;;;19.70;90.70;;;;;;5034308;28;20575;-59
2022/07/26 08:53:30;;;;;;;2.70;2.17;;;19.20;94.00;;;;;;5032923;28;20456;-60
2022/07/26 08:55:57;;;;;;;2.70;2.00;;;18.60;96.10;;;;;;5034674;28;20996;-57
2022/07/26 08:58:25;;;;;;;3.47;2.07;;;18.10;98.50;;;;;;5036121;28;20532;-61
2022/07/26 09:01:06;;;;;;;4.47;2.30;;;17.60;99.90;;;;;;5036140;28;20437;-61
2022/07/26 09:03:36;;;;;;;2.33;2.13;;;17.30;99.90;;;;;;5036382;28;20651;-61
2022/07/26 09:06:14;;;;;;;2.97;2.00;;;17.10;99.90;;;;;;5036592;28;20473;-60
2022/07/26 09:08:42;;;;;;;5.47;2.17;;;16.90;99.90;;;;;;5036372;28;20453;-60
2022/07/26 09:11:29;;;;;;;5.43;2.47;;;16.70;99.90;;;;;;5035894;28;20628;-59
2022/07/26 09:13:58;;;;;;;3.97;2.40;;;16.60;99.90;;;;;;5036277;28;20886;-61
2022/07/26 09:16:27;;;;;;;4.33;2.60;;;16.50;99.90;;;;;;5035792;28;20469;-61
2022/07/26 09:18:56;;;;;;;3.20;2.80;;;16.50;99.90;;;;;;5036083;28;20453;-60
2022/07/26 09:21:31;;;;;;;3.20;2.13;;;16.50;99.90;;;;;;5035951;28;20452;-59
2022/07/26 09:23:59;;;;;;;6.00;2.60;;;16.50;99.90;;;;;;5035420;28;20876;-59
2022/07/26 09:26:27;;;;;;;5.00;2.97;;;16.60;99.90;;;;;;5035568;28;20531;-60
2022/07/26 09:29:06;;;;;;;4.10;2.37;;;16.70;99.90;;;;;;5035410;28;20536;-60
2022/07/26 09:31:36;;;;;;;3.40;2.70;;;16.70;99.90;;;;;;5035551;28;20980;-59
2022/07/26 09:34:04;;;;;;;4.40;2.57;;;16.80;99.90;;;;;;5036291;28;20503;-60
2022/07/26 09:36:32;;;;;;;3.47;2.63;;;16.90;99.90;;;;;;5056833;28;20459;-59
2022/07/26 09:39:02;;;;;;;5.40;2.57;;;16.90;99.90;;;;;;5069054;28;20456;-58
2022/07/26 09:41:32;;;;;;;5.47;2.53;;;17.00;99.90;;;;;;5046977;28;20469;-58
2022/07/26 09:44:01;;;;;;;4.63;2.57;;;17.10;99.90;;;;;;5049119;28;20449;-59
2022/07/26 09:46:29;;;;;;;6.73;3.03;;;17.20;99.90;;;;;;5076182;28;20472;-59
2022/07/26 09:49:15;;;;;;;3.03;2.50;;;17.40;99.90;;;;;;5050806;28;20901;-61
2022/07/26 09:51:44;;;;;;;4.93;2.40;;;17.60;99.90;;;;;;5054429;28;20456;-61
2022/07/26 09:54:17;;;;;;;4.10;2.17;;;17.90;99.90;;;;;;5055229;28;20452;-61
2022/07/26 09:56:47;;;;;;;3.80;2.20;;;18.10;99.90;;;;;;5055209;28;20468;-61
2022/07/26 09:59:15;;;;;;;4.83;2.57;;;18.20;99.90;;;;;;5056923;28;20875;-60
2022/07/26 10:01:43;;;;;;;5.97;2.60;;;18.40;99.90;;;;;;5055331;28;20846;-60
2022/07/26 10:04:12;;;;;;;3.40;2.37;;;18.50;99.90;;;;;;5054731;28;20444;-60
2022/07/26 10:06:40;;;;;;;4.93;2.73;;;18.70;99.90;;;;;;5054288;28;20471;-59
2022/07/26 10:09:08;;;;;;;5.03;2.77;;;18.80;99.90;;;;;;5054473;28;20842;-60
2022/07/26 10:11:42;;;;;;;4.30;2.70;;;18.90;99.90;;;;;;5054296;28;20479;-61
2022/07/26 10:14:34;;;;;;;3.70;2.70;;;18.80;99.90;;;;;;5054201;28;20424;-60
2022/07/26 10:17:22;;;;;;;4.60;2.60;;;18.90;99.90;;;;;;5054534;28;20520;-60
2022/07/26 10:19:52;;;;;;;6.23;2.83;;;19.00;99.90;;;;;;5053959;28;20466;-61
2022/07/26 10:22:23;;;;;;;3.30;2.53;;;19.10;99.90;;;;;;5054765;28;20459;-60
2022/07/26 10:24:50;;;;;;;5.13;2.50;;;19.10;99.90;;;;;;5054984;28;20524;-60
2022/07/26 10:27:38;;;;;;;6.70;2.60;;;19.10;99.90;;;;;;5054743;28;20521;-61
2022/07/26 10:30:22;;;;;;;4.33;2.57;;;19.10;99.90;;;;;;5053968;28;20956;-59
2022/07/26 10:32:59;;;;;;;4.33;3.00;;;18.90;99.90;;;;;;5054292;28;20546;-60
2022/07/26 10:35:41;;;;;;;3.17;2.50;;;18.70;99.90;;;;;;5054155;28;20476;-60
2022/07/26 10:38:10;;;;;;;4.33;3.07;;;18.50;99.90;;;;;;5053929;28;20439;-62
2022/07/26 10:40:38;;;;;;;4.47;2.90;;;18.30;99.90;;;;;;5054267;28;20721;-60
2022/07/26 10:43:10;;;;;;;4.70;2.73;;;18.10;99.90;;;;;;5053522;28;20451;-61
2022/07/26 10:45:38;;;;;;;3.07;2.10;;;18.10;99.90;;;;;;5053899;28;20538;-61
2022/07/26 10:48:23;;;;;;;2.60;2.23;;;18.00;99.90;;;;;;5054234;28;20472;-60
2022/07/26 10:50:53;;;;;;;2.63;1.87;;;17.90;99.90;;;;;;5054107;28;20479;-62
2022/07/26 10:53:23;;;;;;;4.03;2.40;;;17.90;99.90;;;;;;5054306;28;20448;-59
2022/07/26 10:55:52;;;;;;;4.10;2.00;;;17.90;99.90;;;;;;5053626;28;20471;-61
2022/07/26 10:58:19;;;;;;;4.63;2.20;;;17.90;99.90;;;;;;5053453;28;20454;-59
2022/07/26 11:00:57;;;;;;;3.63;1.97;;;18.00;99.90;;;;;;5054016;28;20523;-59
2022/07/26 11:03:25;;;;;;;5.40;2.40;;;18.20;99.90;;;;;;5053752;28;20451;-61
2022/07/26 11:05:53;;;;;;;3.57;1.70;;;18.50;99.90;;;;;;5053114;28;20551;-60
2022/07/26 11:08:28;;;;;;;1.87;1.53;;;18.70;99.90;;;;;;5053425;28;20459;-62
2022/07/26 11:10:56;;;;;;;2.53;1.40;;;18.80;99.90;;;;;;5053473;28;20463;-61
2022/07/26 11:13:23;;;;;;;3.27;1.70;;;18.90;99.90;;;;;;5053313;28;20447;-60
2022/07/26 11:15:53;;;;;;;2.03;1.53;;;19.20;99.90;;;;;;5053032;28;20522;-61
2022/07/26 11:18:23;;;;;;;2.13;1.50;;;19.40;99.90;;;;;;5053365;28;20452;-60
2022/07/26 11:20:55;;;;;;;2.73;1.53;;;19.70;99.90;;;;;;5053399;28;20451;-59
2022/07/26 11:23:33;;;;;;;4.43;1.77;;;19.80;99.40;;;;;;5053517;28;20467;-61
2022/07/26 11:26:11;;;;;;;1.50;1.13;;;20.00;99.00;;;;;;5053153;28;20836;-60
2022/07/26 11:29:02;;;;;;;1.43;0.90;;;20.20;97.70;;;;;;5052990;28;20428;-60
2022/07/26 11:31:37;;;;;;;2.93;1.03;;;20.60;96.10;;;;;;5053196;28;20471;-60
2022/07/26 11:34:06;;;;;;;1.50;0.90;;;21.00;94.50;;;;;;5053086;28;20980;-59
2022/07/26 11:36:37;;;;;;;3.27;1.00;;;21.40;92.90;;;;;;5053261;28;20465;-60
2022/07/26 11:39:06;;;;;;;1.67;0.60;;;21.80;90.90;;;;;;5052987;28;20817;-60
2022/07/26 11:41:34;;;;;;;4.70;1.40;;;22.10;87.90;;;;;;5052621;28;20586;-60
2022/07/26 11:44:04;;;;;;;1.20;0.70;;;22.20;84.20;;;;;;5053218;28;20538;-60
2022/07/26 11:46:37;;;;;;;1.43;0.60;;;22.20;82.50;;;;;;5052968;28;20553;-61
2022/07/26 11:49:12;;;;;;;1.77;1.57;;;22.20;78.90;;;;;;5053158;28;20438;-60
2022/07/26 11:51:47;;;;;;;2.40;1.40;;;22.10;76.20;;;;;;5052954;28;20474;-60
2022/07/26 11:54:15;;;;;;;1.20;0.90;;;22.10;75.60;;;;;;5053096;28;20435;-61
2022/07/26 11:56:51;;;;;;;3.40;1.20;;;22.20;74.30;;;;;;5052659;28;20581;-60
2022/07/26 11:59:19;;;;;;;2.07;1.00;;;22.30;73.00;;;;;;5052825;28;20788;-59
2022/07/26 12:01:47;;;;;;;1.83;1.10;;;22.60;71.90;;;;;;5052999;28;20527;-60
2022/07/26 12:04:20;;;;;;;2.10;1.30;;;22.90;70.20;;;;;;5052802;28;20527;-60
2022/07/26 12:06:50;;;;;;;2.50;1.20;;;23.50;67.90;;;;;;5052416;28;20570;-60
2022/07/26 12:09:32;;;;;;;1.70;1.37;;;24.30;64.40;;;;;;5052609;28;20499;-59
2022/07/26 12:12:01;;;;;;;2.33;1.20;;;24.90;61.00;;;;;;5050150;28;20476;-61
2022/07/26 12:14:29;;;;;;;2.63;1.00;;;25.10;59.90;;;;;;5032504;28;20552;-59
2022/07/26 12:16:57;;;;;;;2.53;0.97;;;24.90;59.20;;;;;;5032358;28;20440;-59
2022/07/26 12:19:28;;;;;;;2.60;1.23;;;24.50;59.40;;;;;;5032736;28;20460;-60
2022/07/26 12:21:59;;;;;;;2.13;1.40;;;24.10;60.20;;;;;;5033273;28;20426;-60
2022/07/26 12:24:47;;;;;;;2.13;1.40;;;23.60;60.80;;;;;;5032458;28;20955;-60
2022/07/26 12:27:18;;;;;;;2.47;1.30;;;22.90;62.40;;;;;;5032430;28;20535;-58
2022/07/26 12:29:47;;;;;;;4.60;1.40;;;22.20;65.00;;;;;;5033342;28;20864;-60
2022/07/26 12:32:16;;;;;;;2.03;0.97;;;21.70;67.20;;;;;;5036213;28;20483;-59
2022/07/26 12:34:55;;;;;;;3.43;2.20;;;21.40;68.30;;;;;;5045183;28;20442;-58
2022/07/26 12:37:25;;;;;;;2.80;1.73;;;21.10;69.60;;;;;;5053545;28;20455;-56
2022/07/26 12:40:04;;;;;;;2.97;1.47;;;21.00;70.70;;;;;;5076579;28;20448;-58
2022/07/26 12:42:33;;;;;;;2.70;1.10;;;20.90;71.60;;;;;;5048036;28;20488;-61
2022/07/26 12:45:00;;;;;;;2.30;1.63;;;20.90;72.40;;;;;;5036299;28;20554;-60
2022/07/26 12:47:28;;;;;;;2.53;1.00;;;21.00;72.80;;;;;;5035910;28;20528;-60
2022/07/26 12:49:56;;;;;;;2.90;1.90;;;21.40;72.10;;;;;;5036037;28;20443;-60
2022/07/26 12:52:25;;;;;;;2.20;1.77;;;21.60;71.30;;;;;;5035894;28;20508;-60
2022/07/26 12:54:53;;;;;;;4.10;1.40;;;22.00;69.70;;;;;;5069641;28;20556;-60
2022/07/26 12:57:21;;;;;;;2.30;1.77;;;22.20;66.70;;;;;;5075980;28;20450;-59